EJA809 KRIC-KRDU
Flight info
| Callsign | EJA809 |
|---|---|
| Flight time | 0h 30m |
| Altitude | 21000 |
| Route | HOUKY TAQLE3 |
| Aircraft | C700/M-SBDGHM1RWXY/LB2 |
Departure
| Time | 2026-05-06 23:07 |
|---|---|
| Airport | Richmond International Airport (KRIC) |
Arrival
| Time | 2026-05-06 23:37 |
|---|---|
| Airport | Raleigh-Durham International Airport (KRDU) |
| Time | Latitude | Longitude | Altitude | Speed | Heading |
|---|---|---|---|---|---|
| 2026-05-06 22:45 | 37.51135 | -77.32894 | 167 ft | 0 kts | 193° |
| 2026-05-06 23:03 | 37.51128 | -77.32896 | 167 ft | 4 kts | 186° |
| 2026-05-06 23:04 | 37.51082 | -77.32851 | 166 ft | 10 kts | 93° |
| 2026-05-06 23:04 | 37.51146 | -77.32817 | 167 ft | 12 kts | 13° |
| 2026-05-06 23:04 | 37.51237 | -77.32791 | 167 ft | 16 kts | 12° |
| 2026-05-06 23:04 | 37.51358 | -77.32754 | 167 ft | 20 kts | 13° |
| 2026-05-06 23:05 | 37.51500 | -77.32712 | 168 ft | 22 kts | 14° |
| 2026-05-06 23:05 | 37.51622 | -77.32668 | 168 ft | 9 kts | 36° |
| 2026-05-06 23:05 | 37.51640 | -77.32598 | 169 ft | 10 kts | 91° |
| 2026-05-06 23:05 | 37.51639 | -77.32500 | 170 ft | 12 kts | 91° |
| 2026-05-06 23:06 | 37.51606 | -77.32452 | 171 ft | 8 kts | 192° |
| 2026-05-06 23:06 | 37.51537 | -77.32473 | 171 ft | 7 kts | 193° |
| 2026-05-06 23:06 | 37.51185 | -77.32575 | 166 ft | 104 kts | 193° |
| 2026-05-06 23:06 | 37.50197 | -77.32860 | 311 ft | 180 kts | 194° |
| 2026-05-06 23:07 | 37.48823 | -77.33277 | 972 ft | 213 kts | 196° |
| 2026-05-06 23:07 | 37.47347 | -77.33789 | 1839 ft | 220 kts | 195° |
| 2026-05-06 23:07 | 37.45859 | -77.34252 | 2973 ft | 219 kts | 193° |
| 2026-05-06 23:07 | 37.44360 | -77.34631 | 4460 ft | 222 kts | 192° |
| 2026-05-06 23:08 | 37.42769 | -77.35016 | 5000 ft | 237 kts | 193° |
| 2026-05-06 23:08 | 37.41157 | -77.35391 | 5014 ft | 235 kts | 192° |
| 2026-05-06 23:08 | 37.39501 | -77.35206 | 5351 ft | 250 kts | 162° |
| 2026-05-06 23:08 | 37.38289 | -77.33607 | 6794 ft | 269 kts | 120° |
| 2026-05-06 23:09 | 37.37818 | -77.31262 | 8298 ft | 286 kts | 103° |
| 2026-05-06 23:09 | 37.37513 | -77.28744 | 9756 ft | 295 kts | 105° |
| 2026-05-06 23:09 | 37.36926 | -77.26261 | 11124 ft | 298 kts | 116° |
| 2026-05-06 23:09 | 37.36083 | -77.23821 | 11984 ft | 321 kts | 120° |
| 2026-05-06 23:10 | 37.34855 | -77.21524 | 11997 ft | 316 kts | 137° |
| 2026-05-06 23:10 | 37.33219 | -77.19650 | 12009 ft | 319 kts | 150° |
| 2026-05-06 23:10 | 37.31284 | -77.18351 | 12011 ft | 313 kts | 163° |
| 2026-05-06 23:10 | 37.29209 | -77.17646 | 12014 ft | 305 kts | 178° |
| 2026-05-06 23:11 | 37.27117 | -77.17564 | 12021 ft | 298 kts | 188° |
| 2026-05-06 23:11 | 37.25110 | -77.18066 | 12026 ft | 292 kts | 202° |
| 2026-05-06 23:11 | 37.23270 | -77.19137 | 12340 ft | 292 kts | 217° |
| 2026-05-06 23:11 | 37.21700 | -77.20683 | 14063 ft | 289 kts | 222° |
| 2026-05-06 23:12 | 37.20130 | -77.22334 | 15312 ft | 298 kts | 223° |
| 2026-05-06 23:12 | 37.18531 | -77.24041 | 16642 ft | 305 kts | 223° |
| 2026-05-06 23:12 | 37.16889 | -77.25803 | 17801 ft | 320 kts | 223° |
| 2026-05-06 23:12 | 37.15146 | -77.27689 | 17933 ft | 330 kts | 223° |
| 2026-05-06 23:13 | 37.13440 | -77.29533 | 17937 ft | 319 kts | 223° |
| 2026-05-06 23:13 | 37.11767 | -77.31341 | 17935 ft | 318 kts | 224° |
| 2026-05-06 23:13 | 37.10104 | -77.33142 | 17932 ft | 321 kts | 224° |
| 2026-05-06 23:13 | 37.08413 | -77.34972 | 17933 ft | 321 kts | 224° |
| 2026-05-06 23:14 | 37.06726 | -77.36798 | 17932 ft | 320 kts | 224° |
| 2026-05-06 23:14 | 37.05048 | -77.38615 | 17930 ft | 321 kts | 224° |
| 2026-05-06 23:14 | 37.03305 | -77.40510 | 17933 ft | 345 kts | 224° |
| 2026-05-06 23:14 | 37.01424 | -77.42574 | 17937 ft | 367 kts | 224° |
| 2026-05-06 23:15 | 36.99477 | -77.44725 | 17939 ft | 383 kts | 224° |
| 2026-05-06 23:15 | 36.97459 | -77.46972 | 17936 ft | 389 kts | 224° |
| 2026-05-06 23:15 | 36.95440 | -77.49222 | 17935 ft | 388 kts | 224° |
| 2026-05-06 23:15 | 36.93407 | -77.51464 | 17939 ft | 391 kts | 223° |
| 2026-05-06 23:16 | 36.91186 | -77.53450 | 17944 ft | 394 kts | 214° |
| 2026-05-06 23:16 | 36.88816 | -77.55077 | 17944 ft | 394 kts | 210° |
| 2026-05-06 23:16 | 36.86366 | -77.56611 | 17946 ft | 394 kts | 210° |
| 2026-05-06 23:16 | 36.83966 | -77.58272 | 17943 ft | 395 kts | 214° |
| 2026-05-06 23:17 | 36.81657 | -77.60119 | 17948 ft | 393 kts | 217° |
| 2026-05-06 23:17 | 36.79407 | -77.62061 | 17960 ft | 393 kts | 218° |
| 2026-05-06 23:17 | 36.77128 | -77.63951 | 17957 ft | 393 kts | 215° |
| 2026-05-06 23:17 | 36.74765 | -77.65688 | 17953 ft | 394 kts | 213° |
| 2026-05-06 23:18 | 36.72368 | -77.67351 | 17947 ft | 394 kts | 213° |
| 2026-05-06 23:18 | 36.70014 | -77.69089 | 17947 ft | 393 kts | 215° |
| 2026-05-06 23:18 | 36.67717 | -77.70944 | 17944 ft | 392 kts | 217° |
| 2026-05-06 23:18 | 36.65435 | -77.72812 | 17946 ft | 393 kts | 216° |
| 2026-05-06 23:19 | 36.63131 | -77.74575 | 17944 ft | 394 kts | 214° |
| 2026-05-06 23:19 | 36.60760 | -77.76280 | 17939 ft | 394 kts | 213° |
| 2026-05-06 23:19 | 36.58391 | -77.78003 | 17757 ft | 397 kts | 214° |
| 2026-05-06 23:19 | 36.56050 | -77.79812 | 17251 ft | 391 kts | 216° |
| 2026-05-06 23:20 | 36.53812 | -77.81603 | 16746 ft | 373 kts | 216° |
| 2026-05-06 23:20 | 36.51647 | -77.83288 | 16259 ft | 361 kts | 215° |
| 2026-05-06 23:20 | 36.49505 | -77.84874 | 15787 ft | 358 kts | 214° |
| 2026-05-06 23:20 | 36.47356 | -77.86448 | 15321 ft | 359 kts | 214° |
| 2026-05-06 23:21 | 36.45221 | -77.88064 | 14841 ft | 358 kts | 215° |
| 2026-05-06 23:21 | 36.43116 | -77.89705 | 14371 ft | 355 kts | 215° |
| 2026-05-06 23:21 | 36.41055 | -77.91299 | 13910 ft | 351 kts | 214° |
| 2026-05-06 23:21 | 36.38974 | -77.92860 | 13428 ft | 349 kts | 213° |
| 2026-05-06 23:22 | 36.36895 | -77.94395 | 12960 ft | 344 kts | 214° |
| 2026-05-06 23:22 | 36.34851 | -77.95928 | 12508 ft | 341 kts | 214° |
| 2026-05-06 23:22 | 36.32845 | -77.97467 | 12062 ft | 337 kts | 214° |
| 2026-05-06 23:22 | 36.30855 | -77.98997 | 11620 ft | 334 kts | 214° |
| 2026-05-06 23:23 | 36.28879 | -78.00488 | 11182 ft | 326 kts | 214° |
| 2026-05-06 23:23 | 36.27010 | -78.01871 | 10767 ft | 309 kts | 213° |
| 2026-05-06 23:23 | 36.25273 | -78.03198 | 10380 ft | 276 kts | 217° |
| 2026-05-06 23:23 | 36.23852 | -78.04708 | 10030 ft | 266 kts | 227° |
| 2026-05-06 23:24 | 36.22683 | -78.06466 | 9668 ft | 262 kts | 236° |
| 2026-05-06 23:24 | 36.21775 | -78.08406 | 9316 ft | 258 kts | 244° |
| 2026-05-06 23:24 | 36.21069 | -78.10443 | 8982 ft | 257 kts | 247° |
| 2026-05-06 23:24 | 36.20380 | -78.12457 | 8954 ft | 252 kts | 246° |
| 2026-05-06 23:25 | 36.19680 | -78.14480 | 8949 ft | 259 kts | 246° |
| 2026-05-06 23:25 | 36.18976 | -78.16546 | 8925 ft | 262 kts | 247° |
| 2026-05-06 23:25 | 36.18277 | -78.18641 | 8741 ft | 260 kts | 247° |
| 2026-05-06 23:25 | 36.17611 | -78.20657 | 8514 ft | 247 kts | 247° |
| 2026-05-06 23:26 | 36.16971 | -78.22573 | 8281 ft | 236 kts | 247° |
| 2026-05-06 23:26 | 36.16347 | -78.24412 | 8059 ft | 229 kts | 247° |
| 2026-05-06 23:26 | 36.15732 | -78.26224 | 7844 ft | 229 kts | 247° |
| 2026-05-06 23:26 | 36.15129 | -78.28040 | 7625 ft | 232 kts | 248° |
| 2026-05-06 23:27 | 36.14741 | -78.29988 | 7399 ft | 235 kts | 259° |
| 2026-05-06 23:27 | 36.14472 | -78.31978 | 7179 ft | 234 kts | 256° |
| 2026-05-06 23:27 | 36.14073 | -78.33904 | 6957 ft | 227 kts | 253° |
| 2026-05-06 23:27 | 36.13682 | -78.35761 | 6740 ft | 220 kts | 255° |
| 2026-05-06 23:28 | 36.13358 | -78.37584 | 6518 ft | 214 kts | 256° |
| 2026-05-06 23:28 | 36.13005 | -78.39344 | 6283 ft | 208 kts | 245° |
| 2026-05-06 23:28 | 36.12172 | -78.40784 | 6046 ft | 206 kts | 229° |
| 2026-05-06 23:28 | 36.11224 | -78.42084 | 5971 ft | 200 kts | 229° |
| 2026-05-06 23:29 | 36.10300 | -78.43387 | 5962 ft | 203 kts | 230° |
| 2026-05-06 23:29 | 36.09394 | -78.44781 | 5800 ft | 212 kts | 236° |
| 2026-05-06 23:29 | 36.08657 | -78.46322 | 5567 ft | 206 kts | 240° |
| 2026-05-06 23:29 | 36.07975 | -78.47871 | 5341 ft | 205 kts | 240° |
| 2026-05-06 23:30 | 36.07293 | -78.49426 | 5095 ft | 206 kts | 240° |
| 2026-05-06 23:30 | 36.06614 | -78.50989 | 4846 ft | 205 kts | 240° |
| 2026-05-06 23:30 | 36.05950 | -78.52523 | 4594 ft | 205 kts | 240° |
| 2026-05-06 23:30 | 36.05281 | -78.54082 | 4344 ft | 204 kts | 240° |
| 2026-05-06 23:31 | 36.04627 | -78.55628 | 4095 ft | 202 kts | 242° |
| 2026-05-06 23:31 | 36.04034 | -78.57197 | 3964 ft | 198 kts | 242° |
| 2026-05-06 23:31 | 36.03350 | -78.58676 | 3956 ft | 200 kts | 233° |
| 2026-05-06 23:31 | 36.02413 | -78.59972 | 3951 ft | 204 kts | 225° |
| 2026-05-06 23:32 | 36.01726 | -78.60796 | 3952 ft | 203 kts | 224° |
| 2026-05-06 23:32 | 36.00721 | -78.62031 | 3862 ft | 207 kts | 225° |
| 2026-05-06 23:32 | 35.99727 | -78.63296 | 3612 ft | 207 kts | 225° |
| 2026-05-06 23:32 | 35.98736 | -78.64523 | 3349 ft | 197 kts | 224° |
| 2026-05-06 23:33 | 35.97775 | -78.65697 | 3098 ft | 192 kts | 225° |
| 2026-05-06 23:33 | 35.96861 | -78.66858 | 2847 ft | 185 kts | 225° |
| 2026-05-06 23:33 | 35.95963 | -78.67962 | 2624 ft | 176 kts | 224° |
| 2026-05-06 23:33 | 35.95129 | -78.68987 | 2392 ft | 163 kts | 225° |
| 2026-05-06 23:34 | 35.94365 | -78.69952 | 2184 ft | 151 kts | 225° |
| 2026-05-06 23:34 | 35.93668 | -78.70815 | 2001 ft | 132 kts | 224° |
| 2026-05-06 23:34 | 35.93017 | -78.71610 | 1826 ft | 134 kts | 224° |
| 2026-05-06 23:34 | 35.92373 | -78.72423 | 1663 ft | 128 kts | 224° |
| 2026-05-06 23:35 | 35.91745 | -78.73198 | 1495 ft | 126 kts | 224° |
| 2026-05-06 23:35 | 35.91143 | -78.73936 | 1330 ft | 123 kts | 225° |
| 2026-05-06 23:35 | 35.90544 | -78.74692 | 1189 ft | 123 kts | 224° |
| 2026-05-06 23:35 | 35.89944 | -78.75423 | 1027 ft | 117 kts | 223° |
| 2026-05-06 23:36 | 35.89370 | -78.76141 | 882 ft | 121 kts | 224° |
| 2026-05-06 23:36 | 35.88787 | -78.76873 | 727 ft | 122 kts | 225° |
| 2026-05-06 23:36 | 35.88165 | -78.77628 | 547 ft | 122 kts | 225° |
| 2026-05-06 23:36 | 35.87638 | -78.78297 | 428 ft | 97 kts | 225° |
| 2026-05-06 23:37 | 35.87244 | -78.78774 | 421 ft | 49 kts | 224° |
| 2026-05-06 23:37 | 35.87066 | -78.78992 | 415 ft | 23 kts | 225° |
| 2026-05-06 23:37 | 35.87012 | -78.79080 | 413 ft | 12 kts | 268° |
| 2026-05-06 23:37 | 35.87087 | -78.79094 | 414 ft | 14 kts | 17° |
| 2026-05-06 23:38 | 35.87122 | -78.79080 | 411 ft | 0 kts | 17° |
| 2026-05-06 23:39 | 35.87154 | -78.79066 | 411 ft | 12 kts | 24° |
| 2026-05-06 23:39 | 35.87244 | -78.78963 | 411 ft | 22 kts | 44° |
| 2026-05-06 23:39 | 35.87361 | -78.78818 | 408 ft | 25 kts | 46° |
| 2026-05-06 23:40 | 35.87486 | -78.78661 | 412 ft | 27 kts | 44° |
| 2026-05-06 23:40 | 35.87623 | -78.78494 | 409 ft | 24 kts | 44° |
| 2026-05-06 23:40 | 35.87708 | -78.78400 | 412 ft | 12 kts | 14° |
| 2026-05-06 23:40 | 35.87779 | -78.78404 | 411 ft | 12 kts | 40° |
| 2026-05-06 23:41 | 35.87848 | -78.78399 | 411 ft | 11 kts | 312° |
| 2026-05-06 23:41 | 35.87919 | -78.78468 | 404 ft | 15 kts | 341° |
| 2026-05-06 23:41 | 35.87995 | -78.78431 | 410 ft | 6 kts | 43° |
| 2026-05-06 23:41 | 35.87996 | -78.78429 | 410 ft | 0 kts | 43° |